createdAt,value
2019-02-25T05:38:37.892Z,3
2019-02-25T05:45:08.335Z,7
2019-02-25T05:48:08.466Z,10
2019-02-25T05:50:08.585Z,13
2019-02-25T05:51:08.643Z,17
2019-02-25T05:52:38.749Z,20
2019-02-25T05:53:38.789Z,23
2019-02-25T05:54:08.915Z,27
2019-02-25T05:55:09.179Z,30
2019-02-25T05:55:38.936Z,33
2019-02-25T05:56:08.961Z,37
2019-02-25T05:56:38.979Z,40
2019-02-25T05:57:09.011Z,43
2019-02-25T05:57:39.060Z,47
2019-02-25T05:58:09.092Z,50
2019-02-25T05:58:39.129Z,57
2019-02-25T05:59:09.217Z,60
2019-02-25T05:59:39.202Z,63
2019-02-25T06:00:09.261Z,70
2019-02-25T06:00:39.235Z,77
2019-02-25T06:01:09.281Z,80
2019-02-25T06:01:39.315Z,87
2019-02-25T06:02:09.338Z,93
2019-02-25T06:02:39.405Z,100
2019-02-25T06:03:09.376Z,107
2019-02-25T06:03:39.461Z,113
2019-02-25T06:04:09.438Z,123
2019-02-25T06:04:39.488Z,130
2019-02-25T06:05:09.566Z,140
2019-02-25T06:05:39.561Z,147
2019-02-25T06:06:09.572Z,157
2019-02-25T06:06:39.736Z,167
2019-02-25T06:07:10.461Z,177
2019-02-25T06:07:39.656Z,187
2019-02-25T06:08:09.706Z,197
2019-02-25T06:08:39.723Z,207
2019-02-25T06:09:09.738Z,213
2019-02-25T06:09:39.765Z,223
2019-02-25T06:10:09.805Z,237
2019-02-25T06:10:39.896Z,247
2019-02-25T06:11:09.928Z,260
2019-02-25T06:11:39.930Z,270
2019-02-25T06:12:09.935Z,283
2019-02-25T06:12:39.978Z,297
2019-02-25T06:13:10.015Z,310
2019-02-25T06:13:40.070Z,323
2019-02-25T06:14:10.115Z,340
2019-02-25T06:14:40.083Z,357
2019-02-25T06:15:10.129Z,373
2019-02-25T06:15:40.161Z,390
2019-02-25T06:16:10.198Z,410
2019-02-25T06:16:40.280Z,427
2019-02-25T06:17:10.430Z,447
2019-02-25T06:17:40.308Z,467
2019-02-25T06:18:10.300Z,490
2019-02-25T06:18:40.462Z,513
2019-02-25T06:19:10.388Z,537
2019-02-25T06:19:40.399Z,563
2019-02-25T06:20:10.433Z,590
2019-02-25T06:20:40.439Z,617
2019-02-25T06:21:10.549Z,640
2019-02-25T06:21:40.545Z,670
2019-02-25T06:22:10.584Z,697
2019-02-25T06:22:40.590Z,727
2019-02-25T06:23:10.624Z,757
2019-02-25T06:23:40.680Z,787
2019-02-25T06:24:10.681Z,817
2019-02-25T06:24:40.690Z,847
2019-02-25T06:25:10.726Z,873
2019-02-25T06:25:40.764Z,907
2019-02-25T06:26:10.818Z,940
2019-02-25T06:26:40.814Z,973
2019-02-25T06:27:10.863Z,1007
2019-02-25T06:27:40.903Z,1040
2019-02-25T06:28:10.901Z,1070
2019-02-25T06:28:41.012Z,1103
2019-02-25T06:29:11.023Z,1140
2019-02-25T06:29:41.038Z,1173
2019-02-25T06:30:11.048Z,1210
2019-02-25T06:30:41.084Z,1247
2019-02-25T06:31:11.091Z,1280
2019-02-25T06:31:41.126Z,1317
2019-02-25T06:32:11.176Z,1353
2019-02-25T06:32:41.237Z,1390
2019-02-25T06:33:11.233Z,1427
2019-02-25T06:33:41.323Z,1467
2019-02-25T06:34:11.325Z,1500
2019-02-25T06:34:41.302Z,1537
2019-02-25T06:35:11.393Z,1573
2019-02-25T06:35:41.418Z,1613
2019-02-25T06:36:11.405Z,1653
2019-02-25T06:36:41.485Z,1693
2019-02-25T06:37:11.488Z,1730
2019-02-25T06:37:41.573Z,1770
2019-02-25T06:38:11.573Z,1813
2019-02-25T06:38:41.561Z,1853
2019-02-25T06:39:11.656Z,1893
2019-02-25T06:39:41.674Z,1933
2019-02-25T06:40:11.676Z,1973
2019-02-25T06:40:41.693Z,2017
2019-02-25T06:41:11.717Z,2057
2019-02-25T06:41:41.774Z,2097
2019-02-25T06:42:11.768Z,2133
2019-02-25T06:42:41.855Z,2177
2019-02-25T06:43:11.843Z,2220
2019-02-25T06:43:41.864Z,2263
2019-02-25T06:44:11.911Z,2303
2019-02-25T06:44:41.911Z,2347
2019-02-25T06:45:11.952Z,2383
2019-02-25T06:45:41.998Z,2423
2019-02-25T06:46:12.035Z,2457
2019-02-25T06:46:42.085Z,2490
2019-02-25T06:47:12.070Z,2520
2019-02-25T06:47:42.096Z,2550
2019-02-25T06:48:12.184Z,2577
2019-02-25T06:48:42.166Z,2607
2019-02-25T06:49:12.361Z,2640
2019-02-25T06:49:42.257Z,2677
2019-02-25T06:50:12.278Z,2713
2019-02-25T06:50:42.343Z,2747
2019-02-25T06:51:12.404Z,2780
2019-02-25T06:51:42.371Z,2813
2019-02-25T06:52:12.378Z,2853
2019-02-25T06:52:42.438Z,2890
2019-02-25T06:53:12.446Z,2930
2019-02-25T06:53:42.488Z,2970
2019-02-25T06:54:12.629Z,3003
2019-02-25T06:54:42.577Z,3040
2019-02-25T06:55:12.564Z,3077
2019-02-25T06:55:42.624Z,3107
2019-02-25T06:56:12.653Z,3137
2019-02-25T06:56:42.672Z,3163
2019-02-25T06:57:12.677Z,3193
2019-02-25T06:57:42.720Z,3220
2019-02-25T06:58:12.773Z,3253
2019-02-25T06:58:42.838Z,3290
2019-02-25T06:59:12.845Z,3327
2019-02-25T06:59:42.863Z,3360
2019-02-25T07:00:12.907Z,3390
2019-02-25T07:00:42.914Z,3413
2019-02-25T07:01:12.931Z,3437
2019-02-25T07:01:42.960Z,3467
2019-02-25T07:02:12.985Z,3497
2019-02-25T07:02:43.029Z,3530
2019-02-25T07:03:13.107Z,3570
2019-02-25T07:03:43.689Z,3607
2019-02-25T07:04:13.168Z,3640
2019-02-25T07:04:43.139Z,3673
2019-02-25T07:05:13.255Z,3703
2019-02-25T07:05:43.263Z,3730
2019-02-25T07:06:13.240Z,3753
2019-02-25T07:06:43.324Z,3770
2019-02-25T07:07:13.356Z,3793
2019-02-25T07:07:43.354Z,3817
2019-02-25T07:08:13.400Z,3843
2019-02-25T07:08:43.421Z,3873
2019-02-25T07:09:13.463Z,3900
2019-02-25T07:09:43.498Z,3923
2019-02-25T07:10:13.528Z,3943
2019-02-25T07:10:43.530Z,3963
2019-02-25T07:11:13.598Z,3983
2019-02-25T07:11:43.582Z,4003
2019-02-25T07:12:13.607Z,4023
2019-02-25T07:12:44.084Z,4043
2019-02-25T07:13:13.683Z,4060
2019-02-25T07:13:43.730Z,4073
2019-02-25T07:14:13.818Z,4083
2019-02-25T07:14:43.777Z,4090
2019-02-25T07:15:13.871Z,4103
2019-02-25T07:15:43.865Z,4117
2019-02-25T07:16:13.867Z,4123
2019-02-25T07:17:44.000Z,4113
2019-02-25T07:18:13.985Z,4100
2019-02-25T07:18:44.000Z,4093
2019-02-25T07:19:14.099Z,4103
2019-02-25T07:19:44.068Z,4153
2019-02-25T07:20:14.123Z,4190
2019-02-25T07:20:44.172Z,4207
2019-02-25T07:21:14.242Z,4233
2019-02-25T07:21:44.248Z,4257
2019-02-25T07:22:14.225Z,4270
2019-02-25T07:22:44.294Z,4290
2019-02-25T07:23:14.333Z,4323
2019-02-25T07:23:44.353Z,4360
2019-02-25T07:24:14.417Z,4393
2019-02-25T07:24:52.575Z,4423
2019-02-25T07:25:14.470Z,4450
2019-02-25T07:25:44.486Z,4473
2019-02-25T07:26:14.496Z,4490
2019-02-25T07:26:44.523Z,4507
2019-02-25T07:27:14.533Z,4530
2019-02-25T07:27:44.621Z,4553
2019-02-25T07:28:14.659Z,4580
2019-02-25T07:28:44.644Z,4603
2019-02-25T07:29:14.718Z,4623
2019-02-25T07:29:44.724Z,4637
2019-02-25T07:30:14.742Z,4660
2019-02-25T07:30:44.752Z,4680
2019-02-25T07:31:14.819Z,4687
2019-02-25T07:31:44.808Z,4693
2019-02-25T07:32:14.851Z,4727
2019-02-25T07:32:44.867Z,4767
2019-02-25T07:33:14.953Z,4813
2019-02-25T07:33:44.947Z,4870
2019-02-25T07:34:14.996Z,4907
2019-02-25T07:34:45.015Z,4937
2019-02-25T07:35:15.060Z,4967
2019-02-25T07:35:45.108Z,5007
2019-02-25T07:36:15.099Z,5053
2019-02-25T07:36:45.108Z,5123
2019-02-25T07:37:15.251Z,5780
2019-02-25T07:37:45.201Z,7243
2019-02-25T07:38:15.328Z,8763
2019-02-25T07:38:45.270Z,10267
2019-02-25T07:39:15.346Z,10817
2019-02-25T07:39:45.325Z,10807
2019-02-25T07:40:15.339Z,10847
2019-02-25T07:40:45.392Z,10470
2019-02-25T07:41:15.399Z,10037
2019-02-25T07:41:45.455Z,9347
2019-02-25T07:42:15.464Z,8857
2019-02-25T07:42:45.541Z,8550
2019-02-25T07:43:15.643Z,8833
2019-02-25T07:43:45.538Z,9293
2019-02-25T07:44:15.668Z,9603
2019-02-25T07:44:45.643Z,10210
2019-02-25T07:45:15.634Z,10110
2019-02-25T07:45:45.691Z,9760
2019-02-25T07:46:15.700Z,9037
2019-02-25T07:46:45.756Z,7887
2019-02-25T07:47:15.753Z,7987
2019-02-25T07:47:45.806Z,8683
2019-02-25T07:48:15.816Z,9387
2019-02-25T07:48:45.844Z,9610
2019-02-25T07:49:16.013Z,9407
2019-02-25T07:49:45.953Z,9237
2019-02-25T07:50:15.940Z,9613
2019-02-25T07:50:47.285Z,9737
2019-02-25T07:51:16.033Z,10117
2019-02-25T07:51:46.060Z,10400
2019-02-25T07:52:16.121Z,10880
2019-02-25T07:52:46.133Z,10850
2019-02-25T07:53:16.160Z,10920
2019-02-25T07:53:46.159Z,10937
2019-02-25T07:54:16.298Z,10993
2019-02-25T07:54:46.228Z,10597
2019-02-25T07:55:16.471Z,10260
2019-02-25T07:55:46.301Z,10217
2019-02-25T07:56:16.345Z,9757
2019-02-25T07:56:46.392Z,10070
2019-02-25T07:57:16.450Z,10237
2019-02-25T07:57:46.398Z,11177
2019-02-25T07:58:16.439Z,12563
2019-02-25T07:58:46.498Z,13643
2019-02-25T07:59:16.578Z,15180
2019-02-25T07:59:46.553Z,16113
2019-02-25T08:00:16.587Z,15667
2019-02-25T08:00:46.619Z,14830
2019-02-25T08:01:16.696Z,14570
2019-02-25T08:01:46.671Z,13927
2019-02-25T08:02:16.714Z,13290
2019-02-25T08:02:46.775Z,13607
2019-02-25T08:03:16.744Z,13970
2019-02-25T08:03:46.769Z,15360
2019-02-25T08:04:16.817Z,16117
2019-02-25T08:04:46.834Z,16240
2019-02-25T08:05:16.869Z,15480
2019-02-25T08:05:46.923Z,14433
2019-02-25T08:06:16.961Z,13587
2019-02-25T08:06:46.972Z,12670
2019-02-25T08:07:16.996Z,12817
2019-02-25T08:07:47.083Z,13393
2019-02-25T08:08:17.164Z,14673
2019-02-25T08:08:47.138Z,15260
2019-02-25T08:09:17.192Z,15487
2019-02-25T08:09:47.200Z,15403
2019-02-25T08:10:17.217Z,14930
2019-02-25T08:10:47.201Z,14603
2019-02-25T08:11:17.251Z,14207
2019-02-25T08:11:47.264Z,13737
2019-02-25T08:12:17.333Z,12820
2019-02-25T08:12:47.326Z,12120
2019-02-25T08:13:17.355Z,12017
2019-02-25T08:13:47.470Z,11673
2019-02-25T08:14:17.486Z,11543
2019-02-25T08:14:47.447Z,10743
2019-02-25T08:15:17.478Z,10540
2019-02-25T08:15:47.516Z,10590
2019-02-25T08:16:17.769Z,10527
2019-02-25T08:16:47.603Z,11007
2019-02-25T08:17:17.604Z,11067
2019-02-25T08:17:47.675Z,11697
2019-02-25T08:18:17.676Z,11337
2019-02-25T08:18:47.691Z,10393
2019-02-25T08:19:17.758Z,9173
2019-02-25T08:19:47.760Z,8403
2019-02-25T08:20:17.790Z,8407
2019-02-25T08:20:47.835Z,8737
2019-02-25T08:21:17.846Z,9690
2019-02-25T08:21:47.876Z,9927
2019-02-25T08:22:17.968Z,9983
2019-02-25T08:22:47.991Z,10320
2019-02-25T08:23:17.969Z,10407
2019-02-25T08:23:47.997Z,9587
2019-02-25T08:24:18.060Z,9143
2019-02-25T08:24:48.070Z,8777
2019-02-25T08:25:18.102Z,9147
2019-02-25T08:25:48.158Z,9923
2019-02-25T08:26:18.299Z,10980
2019-02-25T08:26:48.216Z,11740
2019-02-25T08:27:18.247Z,12690
2019-02-25T08:27:48.271Z,13390
2019-02-25T08:28:18.278Z,12960
2019-02-25T08:28:48.306Z,13287
2019-02-25T08:29:18.426Z,14037
2019-02-25T08:29:48.425Z,14863
2019-02-25T08:30:18.434Z,15310
2019-02-25T08:30:48.445Z,15643
2019-02-25T08:31:18.488Z,17873
2019-02-25T08:31:48.551Z,18980
2019-02-25T08:32:48.583Z,18237
2019-02-25T08:33:18.581Z,18080
2019-02-25T08:33:48.636Z,17750
2019-02-25T08:34:19.085Z,16847
2019-02-25T08:34:48.751Z,14963
2019-02-25T08:35:18.783Z,13307
2019-02-25T08:35:48.734Z,10967
2019-02-25T08:36:18.809Z,10333
2019-02-25T08:36:48.808Z,10943
2019-02-25T08:37:18.826Z,12150
2019-02-25T08:37:48.853Z,12957
2019-02-25T08:38:18.954Z,12553
2019-02-25T08:38:48.921Z,11590
2019-02-25T08:39:19.032Z,10190
2019-02-25T08:39:48.988Z,9313
2019-02-25T08:40:19.030Z,9243
2019-02-25T08:40:49.042Z,9513
2019-02-25T08:41:19.076Z,9600
2019-02-25T08:41:49.121Z,9993
2019-02-25T08:42:19.131Z,9687
2019-02-25T08:42:49.160Z,10523
2019-02-25T08:43:19.191Z,10543
2019-02-25T08:43:49.221Z,10520
2019-02-25T08:44:19.280Z,10440
2019-02-25T08:44:49.284Z,9593
2019-02-25T08:45:19.376Z,9133
2019-02-25T08:45:49.413Z,10210
2019-02-25T08:46:19.421Z,11933
2019-02-25T08:46:49.457Z,14953
2019-02-25T08:47:19.486Z,16640
2019-02-25T08:47:49.515Z,16597
2019-02-25T08:48:19.567Z,16817
2019-02-25T08:48:49.566Z,16810
2019-02-25T08:49:19.664Z,18713
2019-02-25T08:49:49.601Z,18840
2019-02-25T08:50:19.660Z,20200
2019-02-25T08:50:49.671Z,22410
2019-02-25T08:51:19.703Z,23233
2019-02-25T08:51:49.749Z,24137
2019-02-25T08:52:19.751Z,24210
2019-02-25T08:52:49.783Z,23787
2019-02-25T08:53:19.905Z,24347
2019-02-25T08:53:49.850Z,24500
2019-02-25T08:54:19.900Z,25233
2019-02-25T08:54:49.918Z,26263
2019-02-25T08:55:19.929Z,26690
2019-02-25T08:55:49.983Z,27017
2019-02-25T08:56:20.012Z,27087
2019-02-25T08:56:50.025Z,26980
2019-02-25T08:57:20.063Z,27057
2019-02-25T08:57:50.090Z,25977
2019-02-25T08:58:20.124Z,24893
2019-02-25T08:58:50.626Z,25197
2019-02-25T08:59:20.263Z,26263
2019-02-25T08:59:50.264Z,26630
2019-02-25T09:00:20.337Z,25760
2019-02-25T09:00:50.300Z,25780
2019-02-25T09:01:20.331Z,26557
2019-02-25T09:01:50.417Z,27587
2019-02-25T09:02:20.434Z,27797
2019-02-25T09:02:50.465Z,26880
2019-02-25T09:03:20.467Z,26770
2019-02-25T09:03:50.465Z,26253
2019-02-25T09:04:20.488Z,25880
2019-02-25T09:04:50.565Z,25963
2019-02-25T09:05:20.573Z,26860
2019-02-25T09:05:50.632Z,27667
2019-02-25T09:06:20.626Z,28710
2019-02-25T09:06:50.664Z,29040
2019-02-25T09:07:20.736Z,29030
2019-02-25T09:07:50.703Z,29200
2019-02-25T09:08:20.747Z,29243
2019-02-25T09:08:50.787Z,29153
2019-02-25T09:09:20.803Z,29073
2019-02-25T09:09:50.839Z,28910
2019-02-25T09:10:20.863Z,28540
2019-02-25T09:10:50.932Z,27957
2019-02-25T09:11:20.966Z,22247
2019-02-25T09:11:50.950Z,24770
2019-02-25T09:12:20.981Z,26340
2019-02-25T09:12:51.008Z,26500
2019-02-25T09:13:21.064Z,27287
2019-02-25T09:13:51.079Z,27590
2019-02-25T09:14:21.189Z,27873
2019-02-25T09:14:51.135Z,28817
2019-02-25T09:15:21.206Z,29923
2019-02-25T09:15:51.210Z,30097
2019-02-25T09:16:21.254Z,30157
2019-02-25T09:16:51.315Z,30137
2019-02-25T09:17:21.337Z,30353
2019-02-25T09:17:51.352Z,30257
2019-02-25T09:18:21.408Z,30350
2019-02-25T09:18:51.478Z,30290
2019-02-25T09:19:21.465Z,30403
2019-02-25T09:19:51.502Z,30473
2019-02-25T09:20:21.508Z,30437
2019-02-25T09:20:51.543Z,30473
2019-02-25T09:21:21.567Z,30513
2019-02-25T09:21:51.590Z,30700
2019-02-25T09:22:21.603Z,30640
2019-02-25T09:22:51.656Z,30210
2019-02-25T09:23:21.706Z,30390
2019-02-25T09:23:51.701Z,30383
2019-02-25T09:24:21.777Z,31137
2019-02-25T09:24:51.766Z,31170
2019-02-25T09:25:21.795Z,31230
2019-02-25T09:25:51.807Z,31110
2019-02-25T09:26:21.843Z,31250
2019-02-25T09:26:51.900Z,31290
2019-02-25T09:27:21.902Z,31547
2019-02-25T09:27:51.937Z,31353
2019-02-25T09:28:22.015Z,31217
2019-02-25T09:28:52.023Z,31450
2019-02-25T09:29:22.097Z,31400
2019-02-25T09:29:52.058Z,31580
2019-02-25T09:30:22.110Z,31817
2019-02-25T09:30:52.159Z,32027
2019-02-25T09:31:22.169Z,31993
2019-02-25T09:31:52.191Z,32070
2019-02-25T09:32:22.212Z,32287
2019-02-25T09:32:52.307Z,32473
2019-02-25T09:33:22.328Z,32520
2019-02-25T09:33:52.350Z,32423
2019-02-25T09:34:22.390Z,32603
2019-02-25T09:34:52.471Z,32663
2019-02-25T09:35:22.452Z,32780
2019-02-25T09:35:52.446Z,32903
2019-02-25T09:36:22.528Z,33017
2019-02-25T09:36:52.553Z,33073
2019-02-25T09:37:22.533Z,33260
2019-02-25T09:37:52.612Z,33423
2019-02-25T09:38:23.614Z,33530
2019-02-25T09:38:52.645Z,33520
2019-02-25T09:39:22.676Z,33573
2019-02-25T09:39:52.687Z,33643
2019-02-25T09:40:22.728Z,33793
2019-02-25T09:40:52.747Z,34130
2019-02-25T09:41:29.609Z,34303
2019-02-25T09:41:52.834Z,34413
2019-02-25T09:42:22.840Z,34603
2019-02-25T09:42:52.864Z,34700
2019-02-25T09:43:22.905Z,34740
2019-02-25T09:43:52.922Z,34830
2019-02-25T09:44:23.104Z,34927
2019-02-25T09:44:52.981Z,35050
2019-02-25T09:45:23.078Z,35163
2019-02-25T09:45:53.043Z,35293
2019-02-25T09:46:23.132Z,35353
2019-02-25T09:46:53.193Z,35420
2019-02-25T09:47:23.179Z,35513
2019-02-25T09:47:53.168Z,35680
2019-02-25T09:48:23.225Z,35807
2019-02-25T09:48:53.307Z,35940
2019-02-25T09:49:23.276Z,36017
2019-02-25T09:49:53.309Z,36053
2019-02-25T09:50:23.414Z,34950
2019-02-25T09:50:53.379Z,35860
2019-02-25T09:51:23.430Z,36233
2019-02-25T09:51:53.454Z,36400
2019-02-25T09:52:23.453Z,36457
2019-02-25T09:52:53.478Z,36573
2019-02-25T09:53:29.482Z,36630
2019-02-25T09:54:01.024Z,36663
2019-02-25T09:54:30.467Z,36700
2019-02-25T09:55:01.445Z,36697
2019-02-25T09:55:31.480Z,36767
2019-02-25T09:56:02.410Z,36373
2019-02-25T09:56:32.456Z,36273
2019-02-25T09:57:03.366Z,36217
2019-02-25T09:57:33.420Z,36453
2019-02-25T09:58:04.483Z,35253
2019-02-25T09:58:34.432Z,34680
2019-02-25T09:59:05.455Z,33567
2019-02-25T09:59:35.468Z,32277
2019-02-25T10:00:06.400Z,34340
2019-02-25T10:00:36.490Z,35507
2019-02-25T10:01:07.406Z,35500
2019-02-25T10:01:37.425Z,36513
2019-02-25T10:02:08.430Z,36983
2019-02-25T10:02:38.377Z,37120
2019-02-25T10:03:09.382Z,37450
2019-02-25T10:03:39.451Z,37577
2019-02-25T10:04:10.379Z,37497
2019-02-25T10:04:40.411Z,37040
2019-02-25T10:05:10.452Z,36860
2019-02-25T10:05:40.434Z,37187
2019-02-25T10:06:12.234Z,36967
2019-02-25T10:06:40.530Z,36723
2019-02-25T10:07:10.567Z,37050
2019-02-25T10:07:40.555Z,37390
2019-02-25T10:08:10.625Z,37297
2019-02-25T10:08:40.638Z,37360
2019-02-25T10:09:10.688Z,37537
2019-02-25T10:09:40.690Z,37420
2019-02-25T10:10:10.722Z,36673
2019-02-25T10:10:40.760Z,36320
2019-02-25T10:11:10.799Z,37167
2019-02-25T10:11:40.809Z,38197
2019-02-25T10:12:10.840Z,38120
2019-02-25T10:12:40.940Z,37930
2019-02-25T10:13:10.912Z,37153
2019-02-25T10:13:40.929Z,36497
2019-02-25T10:14:10.961Z,36377
2019-02-25T10:14:41.014Z,36927
2019-02-25T10:15:11.021Z,37510
2019-02-25T10:15:41.043Z,37800
2019-02-25T10:16:11.107Z,37827
2019-02-25T10:16:41.106Z,37963
2019-02-25T10:17:11.192Z,37773
2019-02-25T10:17:41.164Z,37123
2019-02-25T10:18:11.249Z,38073
2019-02-25T10:18:41.275Z,38703
2019-02-25T10:19:11.314Z,38720
2019-02-25T10:19:41.332Z,38660
2019-02-25T10:20:11.370Z,38600
2019-02-25T10:20:41.421Z,38820
2019-02-25T10:21:11.481Z,38843
2019-02-25T10:21:41.412Z,38690
2019-02-25T10:22:11.531Z,38627
2019-02-25T10:22:41.538Z,38753
2019-02-25T10:23:41.597Z,38450
2019-02-25T10:24:11.607Z,38830
2019-02-25T10:24:41.654Z,38770
2019-02-25T10:25:11.832Z,38800
2019-02-25T10:25:41.742Z,38907
2019-02-25T10:26:11.736Z,39000
2019-02-25T10:26:41.725Z,38030
2019-02-25T10:27:11.800Z,38943
2019-02-25T10:27:41.807Z,39093
2019-02-25T10:28:11.830Z,38913
2019-02-25T10:28:41.838Z,39170
2019-02-25T10:29:11.896Z,39317
2019-02-25T10:29:41.977Z,39350
2019-02-25T10:30:12.228Z,39450
2019-02-25T10:30:41.988Z,39407
2019-02-25T10:31:13.020Z,39467
2019-02-25T10:31:43.336Z,39480
2019-02-25T10:32:12.334Z,39367
2019-02-25T10:32:42.128Z,39937
2019-02-25T10:33:12.157Z,39570
2019-02-25T10:33:42.212Z,39053
2019-02-25T10:34:12.252Z,40190
2019-02-25T10:34:42.216Z,40263
2019-02-25T10:35:12.320Z,39983
2019-02-25T10:35:42.348Z,39947
2019-02-25T10:36:12.429Z,39873
2019-02-25T10:36:43.908Z,39907
2019-02-25T10:37:13.111Z,39577
2019-02-25T10:37:43.768Z,39993
2019-02-25T10:38:12.685Z,40107
2019-02-25T10:38:42.511Z,39990
2019-02-25T10:39:13.029Z,40280
2019-02-25T10:39:43.236Z,40660
2019-02-25T10:40:13.155Z,40817
2019-02-25T10:40:43.287Z,41027
2019-02-25T10:41:12.648Z,41000
2019-02-25T10:41:42.690Z,38137
2019-02-25T10:42:12.725Z,37810
2019-02-25T10:42:42.725Z,40843
2019-02-25T10:43:12.752Z,41780
2019-02-25T10:43:42.766Z,41340
2019-02-25T10:44:12.822Z,37477
2019-02-25T10:44:42.886Z,39280
2019-02-25T10:45:13.463Z,40673
2019-02-25T10:45:43.685Z,37773
2019-02-25T10:46:13.790Z,40687
2019-02-25T10:46:44.499Z,42383
2019-02-25T10:47:13.582Z,42217
2019-02-25T10:47:44.185Z,42267
2019-02-25T10:48:13.064Z,42383
2019-02-25T10:49:13.122Z,42587
2019-02-25T10:49:43.146Z,42627
2019-02-25T10:50:13.244Z,42423
2019-02-25T10:50:43.245Z,42407
2019-02-25T10:51:13.716Z,40193
2019-02-25T10:51:43.786Z,39637
2019-02-25T10:52:14.897Z,40637
2019-02-25T10:52:44.862Z,39807
2019-02-25T10:53:15.187Z,35023
2019-02-25T10:53:44.742Z,39753
2019-02-25T10:54:14.706Z,38590
2019-02-25T10:54:43.600Z,38470
2019-02-25T10:55:13.515Z,37520
2019-02-25T10:55:44.826Z,38560
2019-02-25T10:56:14.428Z,41427
2019-02-25T10:56:43.586Z,41913
2019-02-25T10:57:13.660Z,41633
2019-02-25T10:57:43.681Z,41130
2019-02-25T10:58:13.697Z,40383
2019-02-25T10:58:43.713Z,40300
2019-02-25T10:59:13.771Z,39767
2019-02-25T10:59:43.854Z,40427
2019-02-25T11:00:13.907Z,39243
2019-02-25T11:00:45.564Z,43040
2019-02-25T11:01:17.455Z,43453
2019-02-25T11:01:45.397Z,43247
2019-02-25T11:02:15.319Z,43313
2019-02-25T11:02:44.514Z,43277
2019-02-25T11:03:15.267Z,42870
2019-02-25T11:03:45.509Z,42920
2019-02-25T11:04:15.347Z,43003
2019-02-25T11:04:44.121Z,42847
2019-02-25T11:05:14.131Z,42367
2019-02-25T11:05:44.159Z,42453
2019-02-25T11:06:14.185Z,42600
2019-02-25T11:06:44.198Z,42423
2019-02-25T11:07:14.289Z,42793
2019-02-25T11:07:44.253Z,42593
2019-02-25T11:08:14.349Z,41250
2019-02-25T11:08:45.703Z,41630
2019-02-25T11:09:15.761Z,43157
2019-02-25T11:09:45.962Z,40620
2019-02-25T11:10:15.967Z,39470
2019-02-25T11:10:46.153Z,37967
2019-02-25T11:11:16.131Z,40700
2019-02-25T11:11:44.536Z,42337
2019-02-25T11:12:14.553Z,41570
2019-02-25T11:12:44.589Z,40203
2019-02-25T11:13:14.632Z,35490
2019-02-25T11:13:44.626Z,39963
2019-02-25T11:14:14.697Z,42377
2019-02-25T11:14:44.741Z,43417
2019-02-25T11:15:15.979Z,42993
2019-02-25T11:15:46.194Z,42527
2019-02-25T11:16:16.390Z,37470
2019-02-25T11:16:46.011Z,35367
2019-02-25T11:17:16.074Z,37963
2019-02-25T11:17:45.465Z,41383
2019-02-25T11:18:14.915Z,43073
2019-02-25T11:18:44.929Z,43393
2019-02-25T11:19:14.974Z,43817
2019-02-25T11:19:45.016Z,43677
2019-02-25T11:20:15.043Z,43537
2019-02-25T11:20:45.211Z,42793
2019-02-25T11:21:15.108Z,42060
2019-02-25T11:21:45.137Z,40323
2019-02-25T11:22:16.317Z,38950
2019-02-25T11:22:46.085Z,38413
2019-02-25T11:23:16.667Z,37600
2019-02-25T11:23:46.708Z,37233
2019-02-25T11:24:16.607Z,37473
2019-02-25T11:24:47.256Z,36873
2019-02-25T11:25:15.376Z,35680
2019-02-25T11:25:45.438Z,36940
2019-02-25T11:26:15.467Z,42200
2019-02-25T11:26:45.481Z,41853
2019-02-25T11:27:15.552Z,41700
2019-02-25T11:27:45.524Z,41810
2019-02-25T11:28:23.499Z,41813
2019-02-25T11:28:45.583Z,41597
2019-02-25T11:29:16.322Z,41880
2019-02-25T11:29:46.193Z,41597
2019-02-25T11:30:16.570Z,39673
2019-02-25T11:30:47.422Z,41193
2019-02-25T11:31:17.444Z,41603
2019-02-25T11:31:47.299Z,41810
2019-02-25T11:32:17.269Z,41353
2019-02-25T11:32:45.841Z,41657
2019-02-25T11:33:15.846Z,41880
2019-02-25T11:33:45.858Z,40993
2019-02-25T11:34:15.905Z,41257
2019-02-25T11:34:45.980Z,41727
2019-02-25T11:35:15.970Z,41740
2019-02-25T11:35:47.577Z,41310
2019-02-25T11:36:17.626Z,41220
2019-02-25T11:36:47.665Z,42187
2019-02-25T11:37:16.705Z,43423
2019-02-25T11:37:46.165Z,43957
2019-02-25T11:38:16.303Z,44287
2019-02-25T11:38:46.165Z,44620
2019-02-25T11:39:16.236Z,44883
2019-02-25T11:39:46.310Z,44560
2019-02-25T11:40:16.273Z,45143
2019-02-25T11:40:46.341Z,44953
2019-02-25T11:41:16.399Z,44370
2019-02-25T11:41:46.435Z,44867
2019-02-25T11:42:19.755Z,44327
2019-02-25T11:42:46.458Z,44570
2019-02-25T11:43:18.609Z,44997
2019-02-25T11:43:48.140Z,45360
2019-02-25T11:44:17.162Z,44937
2019-02-25T11:44:46.566Z,44880
2019-02-25T11:45:16.647Z,44360
2019-02-25T11:45:46.604Z,44793
2019-02-25T11:46:16.644Z,44160
2019-02-25T11:46:46.681Z,43070
2019-02-25T11:47:16.708Z,42393
2019-02-25T11:47:46.735Z,44200
2019-02-25T11:48:16.778Z,44263
2019-02-25T11:48:46.787Z,43160
2019-02-25T11:49:16.831Z,40507
2019-02-25T11:49:46.917Z,40110
2019-02-25T11:50:16.890Z,40310
2019-02-25T11:50:46.912Z,39973
2019-02-25T11:51:16.968Z,39300
2019-02-25T11:51:46.994Z,39960
2019-02-25T11:52:17.013Z,38987
2019-02-25T11:52:47.083Z,40760
2019-02-25T11:53:17.073Z,40313
2019-02-25T11:53:47.089Z,39210
2019-02-25T11:54:17.138Z,38837
2019-02-25T11:54:47.253Z,36337
2019-02-25T11:55:17.198Z,35357
2019-02-25T11:55:47.303Z,33277
2019-02-25T11:56:17.359Z,31640
2019-02-25T11:56:47.314Z,32713
2019-02-25T11:57:17.396Z,36993
2019-02-25T11:57:47.431Z,36573
2019-02-25T11:58:17.408Z,36007
2019-02-25T11:58:47.443Z,35293
2019-02-25T11:59:17.469Z,35317
2019-02-25T11:59:47.481Z,34507
2019-02-25T12:00:17.645Z,34747
2019-02-25T12:00:47.555Z,36820
2019-02-25T12:01:17.604Z,37687
2019-02-25T12:01:47.637Z,37987
2019-02-25T12:02:25.109Z,37160
2019-02-25T12:02:47.657Z,36910
2019-02-25T12:03:17.728Z,36513
2019-02-25T12:03:47.711Z,35117
2019-02-25T12:04:17.758Z,33457
2019-02-25T12:04:48.449Z,32073
2019-02-25T12:05:17.824Z,30833
2019-02-25T12:05:47.832Z,31157
2019-02-25T12:06:17.881Z,33057
2019-02-25T12:06:47.888Z,34007
2019-02-25T12:07:17.943Z,34403
2019-02-25T12:07:47.966Z,34397
2019-02-25T12:08:18.002Z,33413
2019-02-25T12:08:48.012Z,33037
2019-02-25T12:09:18.074Z,32827
2019-02-25T12:09:49.603Z,32260
2019-02-25T12:10:18.150Z,32133
2019-02-25T12:10:48.294Z,32057
2019-02-25T12:11:18.254Z,34170
2019-02-25T12:11:48.222Z,35243
2019-02-25T12:12:18.265Z,34260
2019-02-25T12:12:48.311Z,34417
2019-02-25T12:13:18.400Z,35300
2019-02-25T12:13:48.369Z,35850
2019-02-25T12:14:18.400Z,35093
2019-02-25T12:14:48.478Z,35763
2019-02-25T12:15:18.540Z,36640
2019-02-25T12:15:48.490Z,37533
2019-02-25T12:16:18.497Z,36807
2019-02-25T12:16:48.565Z,36737
2019-02-25T12:17:18.597Z,34217
2019-02-25T12:17:48.636Z,35100
2019-02-25T12:18:18.653Z,33423
2019-02-25T12:18:48.667Z,34530
2019-02-25T12:19:18.720Z,36957
2019-02-25T12:19:48.760Z,37530
2019-02-25T12:20:18.755Z,36687
2019-02-25T12:20:48.819Z,36173
2019-02-25T12:21:18.802Z,35227
2019-02-25T12:21:48.827Z,33077
2019-02-25T12:22:18.882Z,35753
2019-02-25T12:22:48.916Z,36927
2019-02-25T12:23:18.943Z,36730
2019-02-25T12:23:48.953Z,37543
2019-02-25T12:24:18.992Z,37390
2019-02-25T12:24:49.071Z,36947
2019-02-25T12:25:19.050Z,36027
2019-02-25T12:25:49.063Z,36470